Terminal Aerodrome Forecast
Issued by NWS Birmingham, AL

Home | Current Version | Previous Version | Text Only | Print | Product List | Glossary On
Versions: 1 2 3 4 5 6 7 8 9 10 11 12 13 14 15 16
000
FTUS44 KBMX 212340
TAFBHM
TAF
KBHM 212340Z 2200/2224 16010KT P6SM SCT090
     FM220800 18008KT P6SM OVC020
     FM221000 18007KT P6SM OVC015
     FM221200 18006KT P6SM OVC008
     FM221400 18006KT P6SM BKN015
     FM221700 19010G16KT P6SM SCT035=

USA.gov is the U.S. government's official web portal to all federal, state and local government web resources and services.